createdAt,value
2022-12-31T00:00:21.658Z,100986.47
2022-12-31T00:03:45.630Z,100982.75
2022-12-31T00:06:48.681Z,100982.44
2022-12-31T00:09:51.524Z,100990.19
2022-12-31T00:12:54.477Z,100998.53
2022-12-31T00:16:12.048Z,100995.84
2022-12-31T00:19:15.431Z,100993.94
2022-12-31T00:22:18.310Z,100992.34
2022-12-31T00:25:21.232Z,100995.63
2022-12-31T00:28:24.088Z,101005.88
2022-12-31T00:31:32.571Z,101016.22
2022-12-31T00:34:35.683Z,101017.09
2022-12-31T00:37:38.574Z,101017.81
2022-12-31T00:40:41.459Z,101017.69
2022-12-31T00:43:44.969Z,101019.94
2022-12-31T00:46:48.522Z,101014.56
2022-12-31T00:49:51.227Z,101026.72
2022-12-31T00:52:54.021Z,101028.38
2022-12-31T00:56:05.463Z,101027.72
2022-12-31T00:59:08.533Z,101022.66
2022-12-31T01:02:11.613Z,101033.87
2022-12-31T01:05:14.697Z,101036.34
2022-12-31T01:08:18.100Z,101039.63
2022-12-31T01:11:24.284Z,101043.87
2022-12-31T01:14:27.261Z,101040.53
2022-12-31T01:17:30.078Z,101037.94
2022-12-31T01:20:38.245Z,101039.63
2022-12-31T01:23:42.153Z,101039.63
2022-12-31T01:26:45.371Z,101035.19
2022-12-31T01:29:48.567Z,101028.81
2022-12-31T01:32:51.417Z,101042.53
2022-12-31T01:35:54.238Z,101044.31
2022-12-31T01:39:00.324Z,101046.81
2022-12-31T01:42:03.192Z,101041.75
2022-12-31T01:45:12.035Z,101044.44
2022-12-31T01:48:19.685Z,101044.06
2022-12-31T01:51:23.749Z,101043.97
2022-12-31T01:54:29.165Z,101048.34
2022-12-31T01:57:32.468Z,101043.28
2022-12-31T02:00:35.664Z,101041.59
2022-12-31T02:03:39.019Z,101036.31
2022-12-31T02:06:47.288Z,101046.19
2022-12-31T02:09:50.836Z,101050.56
2022-12-31T02:12:53.571Z,101057.53
2022-12-31T02:16:17.465Z,101052.16
2022-12-31T02:19:25.957Z,101056.22
2022-12-31T02:22:47.869Z,101044.06
2022-12-31T02:26:13.240Z,101052.75
2022-12-31T02:29:34.819Z,101049.69
2022-12-31T02:32:48.386Z,101040.91
2022-12-31T02:35:59.679Z,101043.13
2022-12-31T02:39:04.314Z,101045.59
2022-12-31T02:42:07.536Z,101053.47
2022-12-31T02:45:18.279Z,101056.97
2022-12-31T02:48:35.421Z,101051.88
2022-12-31T02:51:45.783Z,101057.06
2022-12-31T02:55:14.097Z,101060.31
2022-12-31T02:59:05.694Z,101053.09
2022-12-31T03:02:13.956Z,101051.13
2022-12-31T03:05:20.680Z,101034.13
2022-12-31T03:08:25.697Z,101030.75
2022-12-31T03:11:47.223Z,101023.78
2022-12-31T03:14:50.962Z,101021.19
2022-12-31T03:18:04.253Z,101042.97
2022-12-31T03:21:43.509Z,101037.25
2022-12-31T03:25:04.877Z,101012.03
2022-12-31T03:28:13.133Z,101027.25
2022-12-31T03:31:16.491Z,101050.06
2022-12-31T03:34:19.779Z,101036.91
2022-12-31T03:37:22.355Z,101032.53
2022-12-31T03:40:28.481Z,101040.22
2022-12-31T03:43:31.033Z,101035.53
2022-12-31T03:46:34.196Z,101027.47
2022-12-31T03:49:37.076Z,101024.09
2022-12-31T03:52:40.794Z,101012.72
2022-12-31T03:55:43.391Z,101022.28
2022-12-31T03:58:46.469Z,101025.09
2022-12-31T04:01:49.023Z,101024.09
2022-12-31T04:04:52.386Z,101022.28
2022-12-31T04:07:55.851Z,101023.00
2022-12-31T04:10:58.959Z,101031.84
2022-12-31T04:14:01.470Z,101026.69
2022-12-31T04:17:04.623Z,101026.91
2022-12-31T04:20:07.907Z,101032.97
2022-12-31T04:23:11.085Z,101041.38
2022-12-31T04:26:13.637Z,101032.00
2022-12-31T04:29:16.925Z,101023.94
2022-12-31T04:32:19.644Z,101044.50
2022-12-31T04:35:22.766Z,101062.62
2022-12-31T04:38:25.295Z,101049.47
2022-12-31T04:41:28.454Z,101046.00
2022-12-31T04:44:31.725Z,101059.94
2022-12-31T04:47:34.804Z,101052.75
2022-12-31T04:50:37.395Z,101067.59
2022-12-31T04:53:41.174Z,101078.81
2022-12-31T04:56:44.176Z,101070.16
2022-12-31T04:59:47.408Z,101086.56
2022-12-31T05:02:50.603Z,101089.88
2022-12-31T05:05:54.863Z,101095.25
2022-12-31T05:08:57.461Z,101093.44
2022-12-31T05:12:00.749Z,101096.94
2022-12-31T05:15:03.481Z,101092.06
2022-12-31T05:18:06.635Z,101111.13
2022-12-31T05:21:15.417Z,101108.37
2022-12-31T05:24:18.478Z,101106.22
2022-12-31T05:27:21.256Z,101101.87
2022-12-31T05:30:24.495Z,101109.62
2022-12-31T05:33:26.908Z,101107.81
2022-12-31T05:36:30.009Z,101110.31
2022-12-31T05:39:32.513Z,101113.78
2022-12-31T05:42:35.619Z,101122.34
2022-12-31T05:45:38.393Z,101129.19
2022-12-31T05:48:41.360Z,101135.19
2022-12-31T05:51:44.055Z,101130.09
2022-12-31T05:54:47.191Z,101134.34
2022-12-31T05:57:49.724Z,101138.09
2022-12-31T06:00:53.196Z,101132.53
2022-12-31T06:03:56.097Z,101133.31
2022-12-31T06:06:58.904Z,101138.97
2022-12-31T06:10:01.969Z,101136.94
2022-12-31T06:13:05.262Z,101144.72
2022-12-31T06:16:09.692Z,101142.94
2022-12-31T06:19:12.596Z,101148.09
2022-12-31T06:22:16.180Z,101133.69
2022-12-31T06:25:19.364Z,101132.09
2022-12-31T06:28:22.452Z,101124.13
2022-12-31T06:31:25.274Z,101130.09
2022-12-31T06:34:28.147Z,101144.03
2022-12-31T06:37:30.936Z,101154.28
2022-12-31T06:40:37.966Z,101148.22
2022-12-31T06:43:42.802Z,101140.47
2022-12-31T06:46:45.819Z,101156.66
2022-12-31T06:49:48.734Z,101167.22
2022-12-31T06:52:51.573Z,101166.44
2022-12-31T06:55:55.120Z,101164.16
2022-12-31T06:58:58.549Z,101160.47
2022-12-31T07:02:14.602Z,101160.56
2022-12-31T07:05:39.515Z,101164.25
2022-12-31T07:08:42.275Z,101166.06
2022-12-31T07:11:52.603Z,101170.25
2022-12-31T07:15:06.330Z,101171.69
2022-12-31T07:18:11.796Z,101176.28
2022-12-31T07:21:18.347Z,101178.97
2022-12-31T07:24:21.707Z,101188.53
2022-12-31T07:27:45.701Z,101196.97
2022-12-31T07:31:03.767Z,101184.75
2022-12-31T07:34:25.101Z,101178.66
2022-12-31T07:37:39.964Z,101186.63
2022-12-31T07:41:09.423Z,101188.19
2022-12-31T07:44:35.324Z,101185.31
2022-12-31T07:47:38.520Z,101187.13
2022-12-31T07:50:41.594Z,101192.97
2022-12-31T07:53:44.449Z,101207.84
2022-12-31T07:56:48.399Z,101209.63
2022-12-31T08:00:08.245Z,101194.56
2022-12-31T08:03:21.016Z,101202.91
2022-12-31T08:06:30.363Z,101209.53
2022-12-31T08:09:41.920Z,101217.50
2022-12-31T08:12:46.857Z,101206.56
2022-12-31T08:15:49.602Z,101224.56
2022-12-31T08:18:53.202Z,101218.72
2022-12-31T08:22:04.844Z,101215.97
2022-12-31T08:25:19.337Z,101229.91
2022-12-31T08:28:39.550Z,101246.78
2022-12-31T08:32:07.764Z,101240.91
2022-12-31T08:35:40.809Z,101252.66
2022-12-31T08:38:54.971Z,101256.31
2022-12-31T08:41:58.276Z,101267.28
2022-12-31T08:45:37.775Z,101264.13
2022-12-31T08:48:43.863Z,101263.94
2022-12-31T08:51:47.281Z,101280.81
2022-12-31T08:54:50.177Z,101277.22
2022-12-31T08:58:11.777Z,101270.75
2022-12-31T09:01:19.124Z,101278.03
2022-12-31T09:04:40.750Z,101266.72
2022-12-31T09:08:15.319Z,101262.84
2022-12-31T09:11:28.201Z,101273.13
2022-12-31T09:14:47.448Z,101288.63
2022-12-31T09:17:52.270Z,101269.81
2022-12-31T09:20:55.064Z,101260.69
2022-12-31T09:23:58.463Z,101266.22
2022-12-31T09:27:35.169Z,101266.69
2022-12-31T09:30:47.269Z,101269.72
2022-12-31T09:34:02.132Z,101254.16
2022-12-31T09:37:44.334Z,101257.00
2022-12-31T09:41:08.841Z,101253.41
2022-12-31T09:44:17.933Z,101228.09
2022-12-31T09:47:23.803Z,101240.44
2022-12-31T09:50:32.862Z,101223.47
2022-12-31T09:54:05.233Z,101230.37
2022-12-31T09:57:37.176Z,101210.88
2022-12-31T10:00:59.938Z,101207.75
2022-12-31T10:04:14.070Z,101206.53
2022-12-31T10:07:34.942Z,101192.41
2022-12-31T10:10:57.903Z,101195.63
2022-12-31T10:14:26.975Z,101201.16
2022-12-31T10:17:38.208Z,101209.22
2022-12-31T10:21:23.406Z,101209.13
2022-12-31T10:24:32.789Z,101201.91
2022-12-31T10:27:53.636Z,101213.50
2022-12-31T10:31:17.236Z,101206.50
2022-12-31T10:35:13.960Z,101214.69
2022-12-31T10:38:50.915Z,101208.84
2022-12-31T10:41:59.335Z,101207.34
2022-12-31T10:45:14.610Z,101213.94
2022-12-31T10:48:33.785Z,101223.87
2022-12-31T10:51:50.909Z,101202.81
2022-12-31T10:55:10.416Z,101216.37
2022-12-31T10:58:39.927Z,101213.50
2022-12-31T11:01:54.372Z,101204.16
2022-12-31T11:05:03.289Z,101197.16
2022-12-31T11:08:33.148Z,101211.81
2022-12-31T11:11:58.321Z,101190.19
2022-12-31T11:15:23.078Z,101198.72
2022-12-31T11:18:26.092Z,101197.72
2022-12-31T11:21:39.390Z,101184.16
2022-12-31T11:25:19.156Z,101185.59
2022-12-31T11:29:03.838Z,101192.78
2022-12-31T11:32:26.947Z,101181.12
2022-12-31T11:35:41.615Z,101194.81
2022-12-31T11:39:00.368Z,101197.03
2022-12-31T11:42:21.362Z,101197.22
2022-12-31T11:45:50.870Z,101194.13
2022-12-31T11:49:08.600Z,101197.97
2022-12-31T11:52:36.197Z,101181.84
2022-12-31T11:56:06.365Z,101176.50
2022-12-31T11:59:18.866Z,101172.53
2022-12-31T12:02:32.319Z,101170.34
2022-12-31T12:05:36.502Z,101180.41
2022-12-31T12:08:40.630Z,101182.94
2022-12-31T12:11:43.953Z,101196.25
2022-12-31T12:14:52.654Z,101193.91
2022-12-31T12:18:08.141Z,101205.97
2022-12-31T12:21:11.959Z,101200.69
2022-12-31T12:24:29.116Z,101212.97
2022-12-31T12:27:34.634Z,101213.94
2022-12-31T12:30:41.357Z,101206.31
2022-12-31T12:33:46.370Z,101205.78
2022-12-31T12:36:50.103Z,101201.22
2022-12-31T12:40:02.235Z,101201.97
2022-12-31T12:43:06.995Z,101183.38
2022-12-31T12:46:30.436Z,101187.22
2022-12-31T12:49:46.014Z,101196.91
2022-12-31T12:53:13.035Z,101180.28
2022-12-31T12:56:51.589Z,101188.09
2022-12-31T13:00:03.578Z,101193.94
2022-12-31T13:04:07.284Z,101174.66
2022-12-31T13:07:27.115Z,101178.59
2022-12-31T13:10:40.789Z,101173.31
2022-12-31T13:13:45.841Z,101177.75
2022-12-31T13:17:07.189Z,101174.69
2022-12-31T13:20:23.471Z,101174.34
2022-12-31T13:23:33.610Z,101174.16
2022-12-31T13:26:38.811Z,101181.00
2022-12-31T13:29:44.263Z,101193.91
2022-12-31T13:32:51.713Z,101206.66
2022-12-31T13:36:00.525Z,101200.47
2022-12-31T13:39:12.307Z,101198.63
2022-12-31T13:42:22.219Z,101192.25
2022-12-31T13:45:33.214Z,101193.94
2022-12-31T13:48:47.244Z,101180.75
2022-12-31T13:51:53.523Z,101184.97
2022-12-31T13:55:21.469Z,101181.38
2022-12-31T13:58:46.279Z,101180.41
2022-12-31T14:01:56.318Z,101199.59
2022-12-31T14:05:17.748Z,101213.59
2022-12-31T14:08:20.741Z,101219.06
2022-12-31T14:11:42.444Z,101205.50
2022-12-31T14:15:07.097Z,101206.34
2022-12-31T14:18:18.651Z,101214.84
2022-12-31T14:21:34.118Z,101225.16
2022-12-31T14:24:43.245Z,101212.78
2022-12-31T14:27:48.286Z,101212.59
2022-12-31T14:30:58.950Z,101203.00
2022-12-31T14:34:33.729Z,101205.78
2022-12-31T14:38:01.686Z,101213.69
2022-12-31T14:41:26.493Z,101225.59
2022-12-31T14:44:44.102Z,101226.31
2022-12-31T14:47:52.952Z,101221.84
2022-12-31T14:50:59.005Z,101207.69
2022-12-31T14:54:02.177Z,101203.09
2022-12-31T14:57:17.003Z,101204.88
2022-12-31T15:00:39.931Z,101209.22
2022-12-31T15:03:46.100Z,101210.19
2022-12-31T15:06:58.468Z,101219.41
2022-12-31T15:10:07.435Z,101215.19
2022-12-31T15:13:28.020Z,101220.75
2022-12-31T15:16:52.604Z,101213.41
2022-12-31T15:20:03.651Z,101205.34
2022-12-31T15:23:34.466Z,101205.72
2022-12-31T15:26:37.415Z,101212.25
2022-12-31T15:29:45.485Z,101235.78
2022-12-31T15:32:48.453Z,101231.91
2022-12-31T15:35:54.126Z,101243.13
2022-12-31T15:39:26.338Z,101237.94
2022-12-31T15:42:49.175Z,101232.56
2022-12-31T15:45:56.545Z,101227.56
2022-12-31T15:49:20.291Z,101246.53
2022-12-31T15:52:30.289Z,101244.03
2022-12-31T15:55:38.775Z,101249.31
2022-12-31T15:58:44.681Z,101263.28
2022-12-31T16:01:48.668Z,101234.03
2022-12-31T16:04:55.609Z,101232.41
2022-12-31T16:07:59.600Z,101238.69
2022-12-31T16:11:08.397Z,101235.28
2022-12-31T16:14:38.584Z,101233.66
2022-12-31T16:17:41.892Z,101242.44
2022-12-31T16:20:48.511Z,101232.44
2022-12-31T16:23:53.765Z,101227.44
2022-12-31T16:26:59.868Z,101230.03
2022-12-31T16:30:18.265Z,101228.31
2022-12-31T16:33:21.090Z,101228.44
2022-12-31T16:36:24.373Z,101231.72
2022-12-31T16:39:39.382Z,101230.91
2022-12-31T16:42:44.571Z,101215.22
2022-12-31T16:45:47.358Z,101217.72
2022-12-31T16:49:12.628Z,101230.13
2022-12-31T16:52:41.643Z,101250.63
2022-12-31T16:55:54.048Z,101253.56
2022-12-31T16:59:03.434Z,101258.19
2022-12-31T17:02:32.797Z,101243.13
2022-12-31T17:06:14.849Z,101248.84
2022-12-31T17:09:21.201Z,101239.97
2022-12-31T17:12:24.973Z,101243.19
2022-12-31T17:15:38.715Z,101261.97
2022-12-31T17:18:44.453Z,101259.16
2022-12-31T17:21:48.736Z,101254.59
2022-12-31T17:24:52.325Z,101250.91
2022-12-31T17:28:08.060Z,101245.62
2022-12-31T17:31:40.976Z,101244.84
2022-12-31T17:34:51.310Z,101263.06
2022-12-31T17:37:53.841Z,101274.28
2022-12-31T17:41:06.286Z,101265.50
2022-12-31T17:44:22.591Z,101272.28
2022-12-31T17:47:34.778Z,101273.00
2022-12-31T17:50:50.225Z,101274.88
2022-12-31T17:53:53.490Z,101275.41
2022-12-31T17:56:57.606Z,101277.00
2022-12-31T18:00:00.467Z,101282.00
2022-12-31T18:03:02.938Z,101284.50
2022-12-31T18:06:09.177Z,101279.41
2022-12-31T18:09:16.622Z,101276.59
2022-12-31T18:12:20.197Z,101267.72
2022-12-31T18:15:24.835Z,101253.75
2022-12-31T18:18:30.654Z,101263.13
2022-12-31T18:21:34.761Z,101258.66
2022-12-31T18:24:37.909Z,101256.84
2022-12-31T18:27:42.064Z,101268.72
2022-12-31T18:30:48.400Z,101272.94
2022-12-31T18:33:52.597Z,101281.41
2022-12-31T18:36:55.878Z,101280.41
2022-12-31T18:39:58.502Z,101276.09
2022-12-31T18:43:05.112Z,101280.41
2022-12-31T18:46:15.278Z,101286.47
2022-12-31T18:49:18.761Z,101292.59
2022-12-31T18:52:23.371Z,101298.47
2022-12-31T18:55:42.929Z,101307.75
2022-12-31T18:58:46.627Z,101310.25
2022-12-31T19:01:49.831Z,101305.78
2022-12-31T19:04:52.574Z,101308.28
2022-12-31T19:07:56.467Z,101309.94
2022-12-31T19:10:59.069Z,101302.16
2022-12-31T19:14:03.012Z,101304.66
2022-12-31T19:20:07.577Z,101305.38
2022-12-31T19:23:19.215Z,101302.66
2022-12-31T19:26:25.265Z,101300.97
2022-12-31T19:29:28.974Z,101305.25
2022-12-31T19:32:32.084Z,101306.97
2022-12-31T19:35:34.651Z,101296.59
2022-12-31T19:38:37.737Z,101295.50
2022-12-31T19:41:43.064Z,101310.97
2022-12-31T19:44:46.157Z,101323.72
2022-12-31T19:47:49.277Z,101313.12
2022-12-31T19:50:54.858Z,101316.28
2022-12-31T19:53:57.415Z,101312.72
2022-12-31T19:57:00.507Z,101303.44
2022-12-31T20:00:03.643Z,101294.34
2022-12-31T20:03:15.517Z,101286.19
2022-12-31T20:06:19.761Z,101272.13
2022-12-31T20:09:22.806Z,101271.91
2022-12-31T20:12:25.733Z,101280.38
2022-12-31T20:15:28.641Z,101283.66
2022-12-31T20:18:31.529Z,101275.78
2022-12-31T20:21:34.451Z,101279.47
2022-12-31T20:24:37.251Z,101270.87
2022-12-31T20:27:40.150Z,101284.06
2022-12-31T20:30:42.994Z,101276.06
2022-12-31T20:33:45.949Z,101277.56
2022-12-31T20:36:48.855Z,101286.94
2022-12-31T20:39:51.880Z,101286.72
2022-12-31T20:42:54.765Z,101287.44
2022-12-31T20:45:57.823Z,101287.22
2022-12-31T20:49:03.241Z,101290.38
2022-12-31T20:52:06.419Z,101297.16
2022-12-31T20:55:11.216Z,101301.47
2022-12-31T20:58:14.093Z,101292.88
2022-12-31T21:01:17.443Z,101285.03
2022-12-31T21:04:20.488Z,101285.69
2022-12-31T21:07:23.919Z,101280.50
2022-12-31T21:10:26.745Z,101277.91
2022-12-31T21:13:31.158Z,101283.09
2022-12-31T21:16:34.435Z,101279.62
2022-12-31T21:19:37.200Z,101279.50
2022-12-31T21:22:40.151Z,101284.47
2022-12-31T21:25:43.996Z,101283.50
2022-12-31T21:28:47.027Z,101296.34
2022-12-31T21:31:50.057Z,101299.94
2022-12-31T21:35:14.959Z,101310.06
2022-12-31T21:38:15.819Z,101319.56
2022-12-31T21:41:37.314Z,101314.16
2022-12-31T21:44:40.195Z,101319.56
2022-12-31T21:48:01.585Z,101334.87
2022-12-31T21:51:08.303Z,101327.00
2022-12-31T21:54:31.050Z,101327.00
2022-12-31T21:57:51.888Z,101332.91
2022-12-31T22:01:17.007Z,101334.34
2022-12-31T22:04:59.938Z,101321.19
2022-12-31T22:07:43.123Z,101329.66
2022-12-31T22:10:52.111Z,101343.28
2022-12-31T22:13:56.248Z,101335.41
2022-12-31T22:16:58.919Z,101333.59
2022-12-31T22:20:26.355Z,101338.56
2022-12-31T22:23:24.484Z,101337.69
2022-12-31T22:26:29.024Z,101336.56
2022-12-31T22:29:31.998Z,101338.47
2022-12-31T22:32:35.076Z,101336.09
2022-12-31T22:35:37.884Z,101333.97
2022-12-31T22:38:40.820Z,101330.25
2022-12-31T22:41:43.720Z,101326.66
2022-12-31T22:44:46.676Z,101320.59
2022-12-31T22:47:49.449Z,101318.78
2022-12-31T22:50:58.452Z,101314.28
2022-12-31T22:54:01.372Z,101305.72
2022-12-31T22:57:04.201Z,101314.28
2022-12-31T23:00:12.813Z,101310.00
2022-12-31T23:03:16.170Z,101309.91
2022-12-31T23:06:20.639Z,101318.37
2022-12-31T23:09:42.336Z,101316.56
2022-12-31T23:12:45.208Z,101312.38
2022-12-31T23:16:06.821Z,101298.31
2022-12-31T23:19:28.611Z,101298.19
2022-12-31T23:22:50.035Z,101296.28
2022-12-31T23:25:52.989Z,101291.31
2022-12-31T23:28:55.815Z,101302.22
2022-12-31T23:31:58.835Z,101301.00
2022-12-31T23:35:09.257Z,101307.78
2022-12-31T23:38:13.750Z,101310.16
2022-12-31T23:41:19.468Z,101314.09
2022-12-31T23:44:22.417Z,101314.87
2022-12-31T23:47:25.322Z,101324.25
2022-12-31T23:50:28.352Z,101323.09
2022-12-31T23:53:31.565Z,101321.06
2022-12-31T23:56:34.804Z,101313.88
2022-12-31T23:59:37.677Z,101312.06
